Time;durP1;ratioP1;P1;durP2;ratioP2;P2;SDS_P1;SDS_P2;PMS_P1;PMS_P2;Temp;Humidity;BMP_temperature;BMP_pressure;BME280_temperature;BME280_humidity;BME280_pressure;Samples;Min_cycle;Max_cycle;Signal;HPM_P1;HPM_P2
2023/06/25 06:08:28;;;;;;;2.95;2.80;;;36.40;46.50;;;;;;5496391;23;20256;-70
2023/06/25 06:10:55;;;;;;;2.60;2.50;;;36.50;46.00;;;;;;4974406;28;20214;-70
2023/06/25 06:13:22;;;;;;;3.05;2.80;;;36.50;45.00;;;;;;4974758;28;20222;-69
2023/06/25 06:15:48;;;;;;;3.35;3.15;;;36.30;45.60;;;;;;4974784;28;20203;-70
2023/06/25 06:18:15;;;;;;;2.30;2.30;;;36.40;46.80;;;;;;4974385;28;20254;-69
2023/06/25 06:20:42;;;;;;;2.60;2.47;;;36.50;47.10;;;;;;4974796;28;20198;-69
2023/06/25 06:23:08;;;;;;;2.28;2.28;;;36.90;48.60;;;;;;4974855;28;20199;-69
2023/06/25 06:25:36;;;;;;;3.00;2.90;;;37.00;52.10;;;;;;4975266;28;20197;-69
2023/06/25 06:28:03;;;;;;;2.70;2.60;;;37.50;52.20;;;;;;4974582;28;20229;-69
2023/06/25 06:30:30;;;;;;;2.80;2.70;;;38.20;51.00;;;;;;4974821;28;20203;-70
2023/06/25 06:32:57;;;;;;;2.55;2.42;;;38.50;51.00;;;;;;4974261;28;20697;-70
2023/06/25 06:35:23;;;;;;;2.85;2.75;;;38.70;51.10;;;;;;4974867;28;20207;-70
2023/06/25 06:37:50;;;;;;;2.63;2.53;;;39.10;50.20;;;;;;4974643;28;20219;-70
2023/06/25 06:40:17;;;;;;;2.67;2.58;;;39.40;50.20;;;;;;4974826;28;20210;-71
2023/06/25 06:42:45;;;;;;;2.33;2.33;;;39.80;44.50;;;;;;4974816;28;20210;-71
2023/06/25 06:45:12;;;;;;;2.65;2.55;;;40.10;42.80;;;;;;4974336;28;20203;-72
2023/06/25 06:47:38;;;;;;;2.58;2.45;;;40.00;42.20;;;;;;4974623;28;20222;-70
2023/06/25 06:50:06;;;;;;;2.67;2.58;;;39.70;42.00;;;;;;4974499;28;20227;-70
2023/06/25 06:52:33;;;;;;;2.97;2.88;;;39.50;41.30;;;;;;4974441;28;20233;-70
2023/06/25 06:55:00;;;;;;;2.30;2.20;;;39.40;41.80;;;;;;4975071;28;20203;-69
2023/06/25 06:57:26;;;;;;;2.40;2.30;;;38.70;42.60;;;;;;4975085;28;20199;-69
2023/06/25 06:59:54;;;;;;;3.05;2.85;;;38.20;42.50;;;;;;4974709;28;20203;-69
2023/06/25 07:02:21;;;;;;;2.38;2.17;;;37.60;43.00;;;;;;4975019;28;20199;-68
2023/06/25 07:04:48;;;;;;;2.58;2.47;;;37.60;44.50;;;;;;4977503;28;20203;-69
2023/06/25 07:07:14;;;;;;;2.15;2.15;;;37.70;42.90;;;;;;4977859;28;20203;-69
2023/06/25 07:09:50;;;;;;;2.38;2.28;;;37.50;43.50;;;;;;4977950;28;20206;-67
2023/06/25 07:12:17;;;;;;;2.08;2.03;;;38.00;42.80;;;;;;4977816;28;20234;-67
2023/06/25 07:14:44;;;;;;;2.10;2.08;;;38.20;42.20;;;;;;4977918;28;20210;-69
2023/06/25 07:17:12;;;;;;;2.30;2.20;;;38.40;43.00;;;;;;4977454;28;20691;-69
2023/06/25 07:19:38;;;;;;;2.15;2.15;;;38.10;40.40;;;;;;4977931;28;20214;-69
2023/06/25 07:22:06;;;;;;;2.10;2.00;;;37.00;41.00;;;;;;4977743;28;20671;-70
2023/06/25 07:24:33;;;;;;;2.65;2.42;;;36.70;41.80;;;;;;4977954;28;20207;-68
2023/06/25 07:27:00;;;;;;;2.13;2.13;;;36.40;41.30;;;;;;4977595;28;20214;-69
2023/06/25 07:29:27;;;;;;;2.42;2.33;;;35.50;41.30;;;;;;4977391;28;20219;-68
2023/06/25 07:31:54;;;;;;;2.50;2.40;;;35.10;42.20;;;;;;4977393;28;20218;-68
2023/06/25 07:34:23;;;;;;;2.38;2.28;;;34.20;42.80;;;;;;4977379;28;20202;-68
2023/06/25 07:36:49;;;;;;;2.22;2.13;;;34.10;44.10;;;;;;4977610;28;20234;-68
2023/06/25 07:39:25;;;;;;;2.47;2.38;;;34.00;44.00;;;;;;4977127;28;20249;-68
2023/06/25 07:41:52;;;;;;;2.72;2.63;;;33.70;43.80;;;;;;4977112;28;20694;-68
2023/06/25 07:44:19;;;;;;;2.47;2.38;;;33.40;44.20;;;;;;4976956;28;20597;-68
2023/06/25 07:46:46;;;;;;;2.95;2.83;;;33.30;44.30;;;;;;4977089;28;20207;-68
2023/06/25 07:49:13;;;;;;;2.50;2.30;;;33.10;45.60;;;;;;4976699;28;20260;-68
2023/06/25 07:51:44;;;;;;;2.60;2.50;;;32.50;44.80;;;;;;4976464;28;20693;-68
2023/06/25 07:54:11;;;;;;;2.60;2.50;;;32.70;45.30;;;;;;4977237;28;20223;-68
2023/06/25 07:56:38;;;;;;;2.92;2.72;;;32.90;45.70;;;;;;4977221;28;20251;-68
2023/06/25 07:59:04;;;;;;;2.70;2.55;;;33.20;44.80;;;;;;4977023;28;20223;-68
2023/06/25 08:01:31;;;;;;;3.25;3.00;;;33.20;45.50;;;;;;4976773;28;20688;-68
2023/06/25 08:03:58;;;;;;;2.42;2.30;;;33.30;45.80;;;;;;4976979;28;20206;-67
2023/06/25 08:06:25;;;;;;;2.95;2.67;;;33.60;45.50;;;;;;4976931;28;20572;-68
2023/06/25 08:08:53;;;;;;;3.05;2.85;;;33.70;44.70;;;;;;4976642;28;20230;-68
2023/06/25 08:11:19;;;;;;;2.33;2.33;;;32.80;44.00;;;;;;4976619;28;20222;-69
2023/06/25 08:13:46;;;;;;;2.65;2.55;;;32.20;45.70;;;;;;4976598;28;20230;-68
2023/06/25 08:16:13;;;;;;;2.67;2.58;;;31.40;46.60;;;;;;4975959;28;20285;-67
2023/06/25 08:18:39;;;;;;;2.95;2.80;;;30.50;48.10;;;;;;4976290;28;20709;-68
2023/06/25 08:21:06;;;;;;;2.70;2.60;;;29.70;49.30;;;;;;4976564;28;20276;-69
2023/06/25 08:23:33;;;;;;;2.45;2.35;;;29.20;50.40;;;;;;4976174;28;20670;-68
2023/06/25 08:26:02;;;;;;;3.05;2.95;;;28.60;50.60;;;;;;4976490;28;20251;-68
2023/06/25 08:28:29;;;;;;;2.60;2.50;;;27.80;50.90;;;;;;4976403;28;20231;-70
2023/06/25 08:30:55;;;;;;;3.08;2.90;;;27.30;52.60;;;;;;4976343;28;20203;-68
2023/06/25 08:33:22;;;;;;;3.40;3.20;;;26.70;54.20;;;;;;4975901;28;20717;-68
2023/06/25 08:35:49;;;;;;;3.13;2.95;;;26.40;56.20;;;;;;4976135;28;20226;-68
2023/06/25 08:38:18;;;;;;;3.35;3.15;;;26.10;57.60;;;;;;4976133;28;20230;-69
2023/06/25 08:40:47;;;;;;;3.40;3.20;;;25.80;59.80;;;;;;4975833;28;20663;-69
2023/06/25 08:43:15;;;;;;;3.42;3.22;;;25.40;59.60;;;;;;4976165;28;20206;-67
2023/06/25 08:45:42;;;;;;;3.65;3.45;;;25.20;73.30;;;;;;4976102;28;20199;-66
2023/06/25 08:48:13;;;;;;;4.05;3.83;;;25.10;74.50;;;;;;4976042;28;20622;-67
2023/06/25 08:50:43;;;;;;;3.75;3.45;;;24.80;80.60;;;;;;4976064;28;20191;-67
2023/06/25 08:53:09;;;;;;;3.85;3.55;;;24.70;83.10;;;;;;4975948;28;20226;-66
2023/06/25 08:55:38;;;;;;;3.70;3.50;;;24.50;90.10;;;;;;4975851;28;20199;-66
2023/06/25 08:58:05;;;;;;;4.13;3.83;;;24.40;84.20;;;;;;4975843;28;20250;-66
2023/06/25 09:00:33;;;;;;;3.97;3.72;;;24.20;86.90;;;;;;4975620;28;20203;-67
2023/06/25 09:03:00;;;;;;;3.83;3.53;;;24.00;86.90;;;;;;4976177;28;20206;-66
2023/06/25 09:05:28;;;;;;;3.63;3.42;;;24.00;91.90;;;;;;4975735;28;20688;-66
2023/06/25 09:07:55;;;;;;;4.45;4.05;;;23.90;90.70;;;;;;4975900;28;20230;-65
2023/06/25 09:10:22;;;;;;;4.22;3.92;;;23.80;93.10;;;;;;4975813;28;20214;-65
2023/06/25 09:12:50;;;;;;;3.65;3.45;;;23.80;98.60;;;;;;4975799;28;20222;-66
2023/06/25 09:15:20;;;;;;;4.45;4.15;;;23.90;99.90;;;;;;4975526;28;20210;-66
2023/06/25 09:17:49;;;;;;;4.10;3.90;;;23.90;97.00;;;;;;4975569;28;20566;-66
2023/06/25 09:20:16;;;;;;;3.78;3.47;;;24.00;94.10;;;;;;4975578;28;20206;-66
2023/06/25 09:22:52;;;;;;;3.70;3.50;;;24.00;95.40;;;;;;4975680;28;20199;-66
2023/06/25 09:25:19;;;;;;;4.65;4.25;;;24.10;93.40;;;;;;4975491;28;20203;-66
2023/06/25 09:27:47;;;;;;;3.92;3.70;;;24.00;92.30;;;;;;4974939;28;20729;-66
2023/06/25 09:30:14;;;;;;;4.45;4.15;;;24.00;91.70;;;;;;4974969;28;20658;-65
2023/06/25 09:32:50;;;;;;;4.13;3.92;;;24.10;87.10;;;;;;4975236;28;20257;-65
2023/06/25 09:35:21;;;;;;;4.43;4.13;;;24.10;86.10;;;;;;4975398;28;20263;-65
2023/06/25 09:37:48;;;;;;;4.25;3.95;;;24.00;92.10;;;;;;4976177;28;20223;-66
2023/06/25 09:40:15;;;;;;;4.03;3.72;;;24.00;91.30;;;;;;4976444;28;20206;-66
2023/06/25 09:42:44;;;;;;;4.38;4.05;;;24.10;84.30;;;;;;4975510;28;20187;-66
2023/06/25 09:45:16;;;;;;;4.35;4.00;;;24.00;88.00;;;;;;4975249;28;20233;-66
2023/06/25 09:47:44;;;;;;;4.10;3.85;;;24.00;85.40;;;;;;4975507;28;20229;-66
2023/06/25 09:50:18;;;;;;;4.45;4.05;;;24.00;90.20;;;;;;4975126;28;20399;-66
2023/06/25 09:52:51;;;;;;;4.43;4.15;;;24.00;95.60;;;;;;4975571;28;20257;-66
2023/06/25 09:55:18;;;;;;;4.72;4.32;;;24.00;90.20;;;;;;4974800;28;20638;-66
2023/06/25 09:57:45;;;;;;;4.25;3.95;;;24.00;87.70;;;;;;4974456;28;20705;-66
2023/06/25 10:00:13;;;;;;;4.88;4.55;;;24.00;80.60;;;;;;4975043;28;20206;-66
2023/06/25 10:02:40;;;;;;;4.20;3.90;;;24.00;78.90;;;;;;4975002;28;20277;-66
2023/06/25 10:05:07;;;;;;;4.10;3.80;;;24.10;82.40;;;;;;4974931;28;20203;-66
2023/06/25 10:07:35;;;;;;;4.13;3.83;;;24.20;73.30;;;;;;4974971;28;20223;-66
2023/06/25 10:10:02;;;;;;;4.32;4.03;;;24.20;77.50;;;;;;4974660;28;20199;-66
2023/06/25 10:12:33;;;;;;;4.90;4.50;;;24.30;73.50;;;;;;4974892;28;20183;-66
2023/06/25 10:15:01;;;;;;;4.70;4.30;;;24.30;67.80;;;;;;4974977;28;20214;-66
2023/06/25 10:17:28;;;;;;;4.47;4.18;;;24.20;66.30;;;;;;4974754;28;20207;-66
2023/06/25 10:19:58;;;;;;;5.10;4.70;;;24.20;66.30;;;;;;4974603;28;20209;-66
2023/06/25 10:22:25;;;;;;;4.55;4.18;;;24.20;72.30;;;;;;4974918;28;20199;-66
2023/06/25 10:24:55;;;;;;;4.38;4.07;;;24.30;70.90;;;;;;4975009;28;20202;-65
2023/06/25 10:27:31;;;;;;;4.40;4.10;;;24.20;66.30;;;;;;4975297;28;20238;-65
2023/06/25 10:29:58;;;;;;;5.00;4.60;;;24.20;70.80;;;;;;4974666;28;20182;-66
2023/06/25 10:32:26;;;;;;;4.53;4.22;;;24.20;76.30;;;;;;4974734;28;20214;-66
2023/06/25 10:34:54;;;;;;;4.65;4.35;;;24.20;82.10;;;;;;4974803;28;20229;-66
2023/06/25 10:37:21;;;;;;;4.60;4.30;;;24.30;78.40;;;;;;4974443;28;20270;-66
2023/06/25 10:39:47;;;;;;;5.13;4.72;;;24.30;73.50;;;;;;4977787;28;20211;-66
2023/06/25 10:42:15;;;;;;;4.60;4.30;;;24.30;71.30;;;;;;4978706;28;20213;-66
2023/06/25 10:44:42;;;;;;;4.57;4.22;;;24.30;70.10;;;;;;4978838;28;20203;-68
2023/06/25 10:47:10;;;;;;;4.80;4.47;;;24.30;66.80;;;;;;4978493;28;20745;-66
2023/06/25 10:49:37;;;;;;;4.53;4.22;;;24.20;68.70;;;;;;4978466;28;20207;-67
2023/06/25 10:52:05;;;;;;;5.15;4.53;;;24.20;70.10;;;;;;4978011;28;20207;-68
2023/06/25 10:54:33;;;;;;;4.78;4.35;;;24.30;68.40;;;;;;4978160;28;20226;-69
2023/06/25 10:57:06;;;;;;;4.40;4.10;;;24.30;66.40;;;;;;4978218;28;20198;-69
2023/06/25 10:59:35;;;;;;;4.68;4.35;;;24.40;68.30;;;;;;4977972;28;20289;-69
2023/06/25 11:02:12;;;;;;;4.80;4.40;;;24.30;68.10;;;;;;4978016;28;20203;-68
2023/06/25 11:04:39;;;;;;;4.72;4.32;;;24.40;66.10;;;;;;4977661;28;20637;-66
2023/06/25 11:07:06;;;;;;;4.20;3.90;;;24.40;63.50;;;;;;4977924;28;20211;-66
2023/06/25 11:09:33;;;;;;;4.82;4.45;;;24.50;64.60;;;;;;4977767;28;20231;-66
2023/06/25 11:12:00;;;;;;;4.10;3.80;;;24.50;66.60;;;;;;4977480;28;20207;-67
2023/06/25 11:14:27;;;;;;;4.10;3.80;;;24.50;67.90;;;;;;4977721;28;20222;-65
2023/06/25 11:16:55;;;;;;;5.60;4.30;;;24.60;67.00;;;;;;4979945;28;20689;-65
2023/06/25 11:19:25;;;;;;;4.75;3.95;;;24.70;66.80;;;;;;4983363;28;20222;-65
2023/06/25 11:21:52;;;;;;;4.20;3.92;;;24.70;71.40;;;;;;4977896;28;20230;-65
2023/06/25 11:24:19;;;;;;;4.32;4.03;;;24.60;72.50;;;;;;4977721;28;20663;-66
2023/06/25 11:26:46;;;;;;;5.07;4.68;;;24.70;71.70;;;;;;4977997;28;20207;-67
2023/06/25 11:29:13;;;;;;;4.70;4.30;;;24.70;71.20;;;;;;4977937;28;20233;-65
2023/06/25 11:31:44;;;;;;;4.30;4.10;;;24.70;66.80;;;;;;4980241;28;20207;-66
2023/06/25 11:34:21;;;;;;;4.22;3.92;;;24.70;69.50;;;;;;4982202;28;20227;-66
2023/06/25 11:36:48;;;;;;;4.68;4.28;;;24.70;66.90;;;;;;4982310;28;20528;-66
2023/06/25 11:39:16;;;;;;;4.30;3.97;;;24.70;65.80;;;;;;4982790;28;20258;-65
2023/06/25 11:41:43;;;;;;;3.83;3.63;;;24.70;65.80;;;;;;4981914;28;20199;-68
2023/06/25 11:44:17;;;;;;;3.38;3.17;;;24.80;71.60;;;;;;4983386;28;20622;-66
2023/06/25 11:46:46;;;;;;;3.95;3.65;;;24.90;73.50;;;;;;4982424;28;20197;-66
2023/06/25 11:49:14;;;;;;;4.18;3.88;;;24.90;70.70;;;;;;4981862;28;20594;-68
2023/06/25 11:51:41;;;;;;;3.95;3.70;;;25.00;70.40;;;;;;4981182;28;20210;-68
2023/06/25 11:54:08;;;;;;;3.58;3.28;;;25.00;65.60;;;;;;4981264;28;20219;-68
2023/06/25 11:56:35;;;;;;;3.65;3.45;;;25.00;68.90;;;;;;4982136;28;20203;-68
2023/06/25 11:59:03;;;;;;;3.60;3.40;;;24.90;68.50;;;;;;4982148;28;20262;-68
2023/06/25 12:01:30;;;;;;;4.78;4.03;;;24.90;69.50;;;;;;4980935;28;20193;-68
2023/06/25 12:03:57;;;;;;;3.85;3.55;;;25.00;70.40;;;;;;4979724;28;20198;-68
2023/06/25 12:06:26;;;;;;;3.97;3.78;;;25.00;71.10;;;;;;4980944;28;20203;-67
2023/06/25 12:08:53;;;;;;;4.50;3.97;;;25.00;72.70;;;;;;4980606;28;20250;-66
2023/06/25 12:11:20;;;;;;;4.55;4.00;;;25.00;72.10;;;;;;4980701;28;20301;-67
2023/06/25 12:13:47;;;;;;;4.15;3.85;;;25.00;69.30;;;;;;4981154;28;20250;-69
2023/06/25 12:16:14;;;;;;;3.58;3.38;;;25.10;70.80;;;;;;4981280;28;20274;-69
2023/06/25 12:18:42;;;;;;;4.40;4.10;;;25.10;69.40;;;;;;4979854;28;20265;-68
2023/06/25 12:21:09;;;;;;;3.45;3.25;;;25.10;70.20;;;;;;4980585;28;20275;-68
2023/06/25 12:23:37;;;;;;;3.53;3.33;;;25.20;73.30;;;;;;4980542;28;20203;-68
2023/06/25 12:26:04;;;;;;;3.20;3.10;;;25.20;69.50;;;;;;4979555;28;20614;-68
2023/06/25 12:28:32;;;;;;;3.22;3.05;;;25.20;68.90;;;;;;4980288;28;20597;-68
2023/06/25 12:30:59;;;;;;;3.83;3.63;;;25.30;72.30;;;;;;4980176;28;20234;-68
2023/06/25 12:33:26;;;;;;;4.20;3.90;;;25.30;70.30;;;;;;4980249;28;20594;-68
2023/06/25 12:35:53;;;;;;;4.72;4.40;;;25.30;70.80;;;;;;4980516;28;20234;-68
2023/06/25 12:38:20;;;;;;;4.35;4.00;;;25.30;69.70;;;;;;5000238;23;20239;-67
2023/06/25 12:40:48;;;;;;;4.43;4.13;;;25.30;72.30;;;;;;4976410;28;20681;-67
2023/06/25 12:43:15;;;;;;;4.50;4.20;;;25.30;72.50;;;;;;4976555;28;20207;-66
2023/06/25 12:45:42;;;;;;;4.03;3.72;;;25.30;69.10;;;;;;4979217;28;20198;-66
2023/06/25 12:48:09;;;;;;;4.40;4.10;;;25.30;71.60;;;;;;4977363;28;20319;-67
2023/06/25 12:50:36;;;;;;;3.80;3.60;;;25.30;73.40;;;;;;4976732;28;20668;-69
2023/06/25 12:53:03;;;;;;;4.35;4.05;;;25.30;67.30;;;;;;4979122;28;20206;-69
2023/06/25 12:55:29;;;;;;;4.32;4.03;;;25.30;63.20;;;;;;4976567;28;20226;-69
2023/06/25 12:57:57;;;;;;;4.47;4.18;;;25.30;63.20;;;;;;4975967;28;20226;-69
2023/06/25 13:00:24;;;;;;;4.18;3.88;;;25.30;65.80;;;;;;4975837;28;20566;-69
2023/06/25 13:02:51;;;;;;;4.32;4.03;;;25.30;63.50;;;;;;4975504;28;20676;-69
2023/06/25 13:05:18;;;;;;;4.07;3.78;;;25.30;63.30;;;;;;4975771;28;20331;-69
2023/06/25 13:07:44;;;;;;;4.28;3.90;;;25.30;62.50;;;;;;4975746;28;20218;-69
2023/06/25 13:10:11;;;;;;;3.78;3.47;;;25.40;62.60;;;;;;4975685;28;20198;-69
2023/06/25 13:12:38;;;;;;;4.20;3.80;;;25.50;63.50;;;;;;4975673;28;20203;-70
2023/06/25 13:15:07;;;;;;;3.38;3.17;;;25.60;62.10;;;;;;4975719;28;20222;-69
2023/06/25 13:17:34;;;;;;;3.78;3.58;;;25.60;59.90;;;;;;4975605;28;20231;-69
2023/06/25 13:20:01;;;;;;;3.85;3.55;;;25.60;61.00;;;;;;4975726;28;20232;-69
2023/06/25 13:22:27;;;;;;;4.10;3.80;;;25.60;64.50;;;;;;4975722;28;20210;-69
2023/06/25 13:24:54;;;;;;;3.22;3.03;;;25.60;62.00;;;;;;4976508;28;20202;-69
2023/06/25 13:27:21;;;;;;;3.80;3.50;;;25.60;62.60;;;;;;4979600;28;20226;-70
2023/06/25 13:29:47;;;;;;;3.65;3.45;;;25.60;60.90;;;;;;4993633;28;20203;-70
2023/06/25 13:32:16;;;;;;;4.28;3.88;;;25.50;61.40;;;;;;4993118;28;20578;-69
2023/06/25 13:34:42;;;;;;;4.57;4.18;;;25.60;63.00;;;;;;4987218;28;20223;-69
2023/06/25 13:37:09;;;;;;;4.13;3.83;;;25.60;63.20;;;;;;4975231;28;20230;-69
2023/06/25 13:39:37;;;;;;;3.63;3.42;;;25.70;62.70;;;;;;4975129;28;20213;-70
2023/06/25 13:42:05;;;;;;;3.92;3.63;;;25.60;61.40;;;;;;4975129;28;20203;-69
2023/06/25 13:44:32;;;;;;;2.92;2.80;;;25.60;62.90;;;;;;4975266;28;20187;-69
2023/06/25 13:46:58;;;;;;;3.28;3.08;;;25.70;67.90;;;;;;4975027;28;20258;-70
2023/06/25 13:49:26;;;;;;;3.50;3.20;;;25.70;68.90;;;;;;4975098;28;20199;-69
2023/06/25 13:51:53;;;;;;;3.10;3.00;;;25.60;67.00;;;;;;4975210;28;20313;-69
2023/06/25 13:54:20;;;;;;;2.92;2.83;;;25.60;67.60;;;;;;4974988;28;20227;-69
2023/06/25 13:56:47;;;;;;;3.05;2.95;;;25.60;64.70;;;;;;4974929;28;20222;-69
2023/06/25 13:59:13;;;;;;;3.17;3.00;;;25.60;65.90;;;;;;4975099;28;20183;-69
2023/06/25 14:01:41;;;;;;;3.60;3.40;;;25.60;67.10;;;;;;4975001;28;20205;-69
2023/06/25 14:04:07;;;;;;;3.30;3.10;;;25.70;64.00;;;;;;4974785;28;20670;-69
2023/06/25 14:06:36;;;;;;;3.92;3.72;;;25.80;65.40;;;;;;4974893;28;20289;-69
2023/06/25 14:09:03;;;;;;;4.07;3.80;;;25.80;63.40;;;;;;4974767;28;20258;-69
2023/06/25 14:11:30;;;;;;;3.88;3.67;;;25.90;62.60;;;;;;4974502;28;20693;-69
2023/06/25 14:13:56;;;;;;;3.90;3.60;;;25.90;62.30;;;;;;4974086;28;20222;-68
2023/06/25 14:16:25;;;;;;;4.20;3.95;;;25.90;63.90;;;;;;4974344;28;20548;-68
2023/06/25 14:18:52;;;;;;;3.88;3.60;;;25.90;62.00;;;;;;4975057;28;20206;-70
2023/06/25 14:21:19;;;;;;;3.55;3.42;;;25.90;62.90;;;;;;4974955;28;20195;-70
2023/06/25 14:23:47;;;;;;;3.63;3.42;;;25.90;63.30;;;;;;4974989;28;20210;-70
2023/06/25 14:26:13;;;;;;;4.15;3.85;;;25.90;63.00;;;;;;4974838;28;20225;-70
2023/06/25 14:28:40;;;;;;;3.22;3.03;;;25.90;66.80;;;;;;4974804;28;20229;-70
2023/06/25 14:31:07;;;;;;;3.50;3.30;;;25.90;69.70;;;;;;4974961;28;20202;-69
2023/06/25 14:33:34;;;;;;;3.40;3.20;;;25.90;70.70;;;;;;4974888;28;20202;-69
2023/06/25 14:36:01;;;;;;;3.40;3.20;;;25.90;65.00;;;;;;4974854;28;20273;-69
2023/06/25 14:38:29;;;;;;;3.10;2.90;;;26.00;64.00;;;;;;4974715;28;20234;-69
2023/06/25 14:40:58;;;;;;;3.88;3.65;;;26.00;61.80;;;;;;4974936;28;20289;-69
2023/06/25 14:43:25;;;;;;;4.00;3.70;;;26.00;63.30;;;;;;4974470;28;20213;-69
2023/06/25 14:45:52;;;;;;;4.05;3.75;;;26.10;61.90;;;;;;4974696;28;20689;-70
2023/06/25 14:48:19;;;;;;;3.60;3.40;;;26.10;60.90;;;;;;4975009;28;20249;-69
2023/06/25 14:50:46;;;;;;;3.65;3.42;;;26.10;61.90;;;;;;4979180;28;20199;-69
2023/06/25 14:53:13;;;;;;;3.33;3.13;;;26.10;61.90;;;;;;4979534;28;20211;-68
2023/06/25 14:55:43;;;;;;;3.65;3.45;;;26.10;60.60;;;;;;4979636;28;20230;-70
2023/06/25 14:58:11;;;;;;;3.70;3.50;;;26.20;62.00;;;;;;4980354;28;20222;-69
2023/06/25 15:00:38;;;;;;;3.65;3.45;;;26.10;68.80;;;;;;4982218;28;20233;-69
2023/06/25 15:03:06;;;;;;;3.15;3.05;;;26.00;66.10;;;;;;4981287;28;20207;-70
2023/06/25 15:05:33;;;;;;;3.45;3.28;;;26.00;66.80;;;;;;4982088;28;20207;-70
2023/06/25 15:08:01;;;;;;;3.20;2.97;;;26.00;70.00;;;;;;4980972;28;20255;-68
2023/06/25 15:10:28;;;;;;;2.95;2.85;;;25.90;69.10;;;;;;4981623;28;20550;-68
2023/06/25 15:12:55;;;;;;;2.80;2.70;;;25.90;72.00;;;;;;4980037;28;20238;-68
2023/06/25 15:15:26;;;;;;;2.85;2.75;;;25.80;73.80;;;;;;4978859;28;20690;-68
2023/06/25 15:17:52;;;;;;;2.92;2.80;;;25.80;77.60;;;;;;4979169;28;20269;-69
2023/06/25 15:20:19;;;;;;;2.55;2.42;;;25.70;75.40;;;;;;4974695;28;20214;-70
2023/06/25 15:22:46;;;;;;;2.80;2.70;;;25.60;77.60;;;;;;4976569;28;20554;-68
2023/06/25 15:25:13;;;;;;;2.90;2.80;;;25.60;74.00;;;;;;4979836;28;20209;-67
2023/06/25 15:27:40;;;;;;;2.95;2.85;;;25.60;74.20;;;;;;4983998;28;20705;-68
2023/06/25 15:30:08;;;;;;;2.72;2.63;;;25.60;75.00;;;;;;4984494;28;20250;-68
2023/06/25 15:32:36;;;;;;;2.85;2.75;;;25.60;78.00;;;;;;4984082;28;20566;-68
2023/06/25 15:35:04;;;;;;;3.25;3.05;;;25.60;72.00;;;;;;4985002;28;20246;-69
2023/06/25 15:37:31;;;;;;;3.30;3.10;;;25.70;66.80;;;;;;4984510;28;20231;-69
2023/06/25 15:39:58;;;;;;;3.85;3.65;;;25.70;64.50;;;;;;4985192;28;20211;-70
2023/06/25 15:42:25;;;;;;;3.60;3.40;;;25.80;64.30;;;;;;4985151;28;20230;-70
2023/06/25 15:44:53;;;;;;;3.13;2.92;;;25.90;67.80;;;;;;4985580;28;20286;-70
2023/06/25 15:47:20;;;;;;;3.65;3.45;;;25.80;65.70;;;;;;4985185;28;20635;-71
2023/06/25 15:49:49;;;;;;;3.95;3.60;;;25.90;66.50;;;;;;4984461;28;20235;-70
2023/06/25 15:52:16;;;;;;;3.15;2.95;;;25.80;65.40;;;;;;4985212;28;20209;-69
2023/06/25 15:54:43;;;;;;;3.60;3.40;;;25.80;67.10;;;;;;4983674;28;20223;-70
2023/06/25 15:57:10;;;;;;;3.03;2.92;;;25.80;64.80;;;;;;4982007;28;20219;-70
2023/06/25 15:59:37;;;;;;;3.15;3.00;;;25.90;63.80;;;;;;4979476;28;20662;-71
2023/06/25 16:02:04;;;;;;;3.30;3.10;;;25.90;62.60;;;;;;4981699;28;20206;-70
2023/06/25 16:04:32;;;;;;;3.28;3.08;;;25.90;66.50;;;;;;4983888;28;20199;-67
2023/06/25 16:07:01;;;;;;;3.90;3.60;;;25.90;64.10;;;;;;4982682;28;20757;-68
2023/06/25 16:09:28;;;;;;;6.68;5.85;;;26.00;65.00;;;;;;4977417;28;20249;-67
2023/06/25 16:11:54;;;;;;;7.53;5.45;;;26.00;63.50;;;;;;4977091;28;20286;-67
2023/06/25 16:14:21;;;;;;;5.07;4.68;;;26.00;64.50;;;;;;4976798;28;20206;-67
2023/06/25 16:16:48;;;;;;;5.45;4.95;;;26.10;66.40;;;;;;4977875;28;20732;-68
2023/06/25 16:19:15;;;;;;;3.92;3.67;;;26.10;69.10;;;;;;4976945;28;20206;-68
2023/06/25 16:21:42;;;;;;;4.13;3.83;;;26.00;65.90;;;;;;4976665;28;20206;-68
2023/06/25 16:24:10;;;;;;;3.83;3.63;;;25.90;67.50;;;;;;4976449;28;20732;-68
2023/06/25 16:26:36;;;;;;;4.05;3.75;;;25.80;71.30;;;;;;4976556;28;20194;-68
2023/06/25 16:29:03;;;;;;;3.78;3.58;;;25.70;72.00;;;;;;4976710;28;20199;-68
2023/06/25 16:31:30;;;;;;;3.38;3.17;;;25.60;70.40;;;;;;4976492;28;20207;-68
2023/06/25 16:33:57;;;;;;;3.75;3.55;;;25.60;76.10;;;;;;4976500;28;20207;-68
2023/06/25 16:36:23;;;;;;;3.25;3.05;;;25.40;82.40;;;;;;4975587;28;20226;-68
2023/06/25 16:38:50;;;;;;;3.72;3.42;;;25.30;85.60;;;;;;4976092;28;20219;-68
2023/06/25 16:41:18;;;;;;;3.30;3.10;;;25.20;88.30;;;;;;4976366;28;20203;-68
2023/06/25 16:43:46;;;;;;;3.03;2.83;;;25.10;93.30;;;;;;4976507;28;20203;-68
2023/06/25 16:46:12;;;;;;;2.83;2.50;;;25.10;95.10;;;;;;4976055;28;20685;-68
2023/06/25 16:48:39;;;;;;;3.20;3.00;;;24.90;93.90;;;;;;4976512;28;20222;-68
2023/06/25 16:51:06;;;;;;;2.70;2.60;;;24.90;93.70;;;;;;4976074;28;20310;-68
2023/06/25 16:53:33;;;;;;;3.85;3.20;;;24.90;90.70;;;;;;4976170;28;20253;-68
2023/06/25 16:56:00;;;;;;;3.00;2.90;;;24.90;79.80;;;;;;4975994;28;20230;-68
2023/06/25 16:58:28;;;;;;;2.90;2.80;;;24.90;83.40;;;;;;4975953;28;20231;-69
2023/06/25 17:00:55;;;;;;;2.90;2.70;;;24.90;85.70;;;;;;4975826;28;20203;-66
2023/06/25 17:03:22;;;;;;;2.40;2.30;;;24.90;90.20;;;;;;4975904;28;20202;-68
2023/06/25 17:05:49;;;;;;;3.47;3.28;;;24.80;90.20;;;;;;4975532;28;20195;-68
2023/06/25 17:08:15;;;;;;;2.40;2.30;;;24.80;91.70;;;;;;4975568;28;20253;-68
2023/06/25 17:10:42;;;;;;;2.95;2.78;;;24.70;94.70;;;;;;4975815;28;20202;-68
2023/06/25 17:13:09;;;;;;;2.58;2.47;;;24.60;94.90;;;;;;4975989;28;20202;-68
2023/06/25 17:15:37;;;;;;;3.35;3.15;;;24.50;93.90;;;;;;4976213;28;20222;-68
2023/06/25 17:18:04;;;;;;;2.83;2.72;;;24.50;96.30;;;;;;4975789;28;20226;-68
2023/06/25 17:20:31;;;;;;;2.78;2.67;;;24.50;97.10;;;;;;4975304;28;20581;-67
2023/06/25 17:22:57;;;;;;;2.90;2.80;;;24.40;99.90;;;;;;4975862;28;20206;-68
2023/06/25 17:25:24;;;;;;;2.90;2.80;;;24.30;99.20;;;;;;4975630;28;20199;-67
2023/06/25 17:27:51;;;;;;;3.05;2.92;;;24.30;99.90;;;;;;4975713;28;20313;-68
2023/06/25 17:30:17;;;;;;;3.15;2.78;;;24.20;99.80;;;;;;4975433;28;20202;-67
2023/06/25 17:32:45;;;;;;;3.17;3.08;;;24.20;99.90;;;;;;4975555;28;20206;-67
2023/06/25 17:35:12;;;;;;;2.67;2.58;;;24.10;97.60;;;;;;4975846;28;20226;-68
2023/06/25 17:37:39;;;;;;;2.85;2.75;;;24.10;97.80;;;;;;4975053;28;20239;-68
2023/06/25 17:40:06;;;;;;;3.17;3.00;;;24.00;99.90;;;;;;4975608;28;20209;-67
2023/06/25 17:42:33;;;;;;;3.25;3.05;;;24.00;99.90;;;;;;4977662;28;20217;-70
2023/06/25 17:45:00;;;;;;;2.58;2.47;;;23.90;99.90;;;;;;4976437;28;20203;-69
2023/06/25 17:47:28;;;;;;;2.63;2.53;;;23.80;99.90;;;;;;4975049;28;20238;-70
2023/06/25 17:49:56;;;;;;;3.20;3.10;;;23.80;99.90;;;;;;4975162;28;20202;-70
2023/06/25 17:52:22;;;;;;;3.15;2.95;;;23.70;99.90;;;;;;4975212;28;20187;-69
2023/06/25 17:54:49;;;;;;;2.88;2.78;;;23.60;99.90;;;;;;4974882;28;20297;-69
2023/06/25 17:57:16;;;;;;;2.95;2.85;;;23.60;99.90;;;;;;4974535;28;20705;-70
2023/06/25 17:59:42;;;;;;;2.85;2.75;;;23.50;99.90;;;;;;4975753;28;20590;-69
2023/06/25 18:02:09;;;;;;;2.90;2.80;;;23.40;99.90;;;;;;4974979;28;20203;-69
2023/06/25 18:04:40;;;;;;;3.28;3.08;;;23.30;99.90;;;;;;4974978;28;20570;-69
2023/06/25 18:07:08;;;;;;;3.10;3.00;;;23.20;99.90;;;;;;4975186;28;20265;-70
2023/06/25 18:09:34;;;;;;;2.95;2.75;;;23.00;99.90;;;;;;4974789;28;20670;-71
2023/06/25 18:12:01;;;;;;;3.17;2.97;;;22.90;99.90;;;;;;4974979;28;20210;-70
2023/06/25 18:14:28;;;;;;;3.22;3.03;;;22.80;99.90;;;;;;4976182;28;20202;-70
2023/06/25 18:16:54;;;;;;;3.22;3.03;;;22.70;99.90;;;;;;4978594;28;20237;-70
2023/06/25 18:19:21;;;;;;;2.78;2.67;;;22.70;99.90;;;;;;4976620;28;20291;-69
2023/06/25 18:21:48;;;;;;;3.25;3.05;;;22.50;99.90;;;;;;4976404;28;20575;-69
2023/06/25 18:24:16;;;;;;;3.65;3.45;;;22.40;99.90;;;;;;4976323;28;20198;-70
2023/06/25 18:26:43;;;;;;;3.40;3.20;;;22.30;99.90;;;;;;4974786;28;20671;-70
2023/06/25 18:29:09;;;;;;;2.92;2.83;;;22.20;99.90;;;;;;4975709;28;20199;-70
2023/06/25 18:31:39;;;;;;;3.50;3.30;;;22.10;99.90;;;;;;4977086;28;20210;-70
2023/06/25 18:34:07;;;;;;;3.35;3.15;;;22.00;99.90;;;;;;4976059;28;20262;-70
2023/06/25 18:36:33;;;;;;;3.33;3.13;;;21.90;99.90;;;;;;4975043;28;20230;-70
2023/06/25 18:39:00;;;;;;;3.30;3.10;;;21.80;99.90;;;;;;4975010;28;20195;-70
2023/06/25 18:41:28;;;;;;;3.35;3.10;;;21.70;99.90;;;;;;4974830;28;20205;-71
2023/06/25 18:43:55;;;;;;;3.33;3.13;;;21.60;99.90;;;;;;4975297;28;20210;-69
2023/06/25 18:46:22;;;;;;;3.40;3.20;;;21.50;99.90;;;;;;4975033;28;20225;-71
2023/06/25 18:48:49;;;;;;;3.60;3.40;;;21.40;99.90;;;;;;5002155;23;20223;-69
2023/06/25 18:51:15;;;;;;;3.13;3.03;;;21.30;99.90;;;;;;4984978;28;20209;-68
2023/06/25 18:53:42;;;;;;;3.53;3.33;;;21.20;99.90;;;;;;4985105;28;20666;-69
2023/06/25 18:56:09;;;;;;;2.95;2.85;;;21.20;99.90;;;;;;4975992;28;20227;-68